createdAt,value
2023-04-09T00:01:12.658Z,44.50
2023-04-09T00:03:42.354Z,45.33
2023-04-09T00:06:13.400Z,46.00
2023-04-09T00:08:42.170Z,42.00
2023-04-09T00:11:10.084Z,43.00
2023-04-09T00:13:39.823Z,42.50
2023-04-09T00:16:09.477Z,43.00
2023-04-09T00:18:38.370Z,44.50
2023-04-09T00:21:08.877Z,46.00
2023-04-09T00:23:37.861Z,44.00
2023-04-09T00:26:06.689Z,43.00
2023-04-09T00:28:36.315Z,42.00
2023-04-09T00:31:04.307Z,43.50
2023-04-09T00:33:33.067Z,40.00
2023-04-09T00:36:02.003Z,48.00
2023-04-09T00:38:30.750Z,43.50
2023-04-09T00:40:58.745Z,44.00
2023-04-09T00:43:28.432Z,46.00
2023-04-09T00:45:57.332Z,49.50
2023-04-09T00:48:25.471Z,48.00
2023-04-09T00:50:54.434Z,49.50
2023-04-09T00:53:22.460Z,44.00
2023-04-09T00:55:51.389Z,47.00
2023-04-09T00:58:20.230Z,46.00
2023-04-09T01:00:49.083Z,51.00
2023-04-09T01:03:17.997Z,51.50
2023-04-09T01:06:11.529Z,47.00
2023-04-09T01:09:02.928Z,49.33
2023-04-09T01:12:10.822Z,46.50
2023-04-09T01:15:10.224Z,48.00
2023-04-09T01:17:47.591Z,45.00
2023-04-09T01:20:44.328Z,43.50
2023-04-09T01:23:48.373Z,44.00
2023-04-09T01:26:53.428Z,44.50
2023-04-09T01:29:24.287Z,46.50
2023-04-09T01:31:54.295Z,43.50
2023-04-09T01:34:24.339Z,46.67
2023-04-09T01:36:59.201Z,43.00
2023-04-09T01:39:28.433Z,43.50
2023-04-09T01:41:58.366Z,42.50
2023-04-09T01:44:29.275Z,39.00
2023-04-09T01:46:59.841Z,42.00
2023-04-09T01:49:29.586Z,42.50
2023-04-09T01:51:58.646Z,46.00
2023-04-09T01:54:27.447Z,44.00
2023-04-09T01:56:58.939Z,45.00
2023-04-09T01:59:27.835Z,48.50
2023-04-09T02:02:06.569Z,46.00
2023-04-09T02:04:44.603Z,46.50
2023-04-09T02:07:27.657Z,54.67
2023-04-09T02:10:00.042Z,56.00
2023-04-09T02:12:34.310Z,51.33
2023-04-09T02:15:04.763Z,54.67
2023-04-09T02:17:33.931Z,49.00
2023-04-09T02:20:03.828Z,56.67
2023-04-09T02:22:33.442Z,55.00
2023-04-09T02:25:03.107Z,42.33
2023-04-09T02:27:32.724Z,51.00
2023-04-09T02:30:01.527Z,53.50
2023-04-09T02:32:30.463Z,44.50
2023-04-09T02:34:59.234Z,49.00
2023-04-09T02:37:28.974Z,94.33
2023-04-09T02:39:58.604Z,61.67
2023-04-09T02:42:28.213Z,48.67
2023-04-09T02:44:56.975Z,46.50
2023-04-09T02:47:27.454Z,49.50
2023-04-09T02:49:57.093Z,49.33
2023-04-09T02:52:26.721Z,45.33
2023-04-09T02:54:54.613Z,43.50
2023-04-09T02:57:23.406Z,46.00
2023-04-09T02:59:52.977Z,40.67
2023-04-09T03:02:21.965Z,46.50
2023-04-09T03:04:51.196Z,46.00
2023-04-09T03:07:20.806Z,51.33
2023-04-09T03:09:49.574Z,39.50
2023-04-09T03:12:18.322Z,44.00
2023-04-09T03:14:47.150Z,46.00
2023-04-09T03:17:15.997Z,39.50
2023-04-09T03:19:43.882Z,40.00
2023-04-09T03:22:13.416Z,44.00
2023-04-09T03:24:42.318Z,43.50
2023-04-09T03:27:11.483Z,45.00
2023-04-09T03:29:40.297Z,43.00
2023-04-09T03:32:08.202Z,43.00
2023-04-09T03:34:37.737Z,45.67
2023-04-09T03:37:06.501Z,43.50
2023-04-09T03:39:34.398Z,44.00
2023-04-09T03:42:03.238Z,44.00
2023-04-09T03:44:32.060Z,45.00
2023-04-09T03:47:00.922Z,41.00
2023-04-09T03:49:29.762Z,36.33
2023-04-09T03:51:58.566Z,43.50
2023-04-09T03:54:30.946Z,44.00
2023-04-09T03:56:58.820Z,40.50
2023-04-09T03:59:26.647Z,43.00
2023-04-09T04:01:55.518Z,44.00
2023-04-09T04:04:24.416Z,47.00
2023-04-09T04:06:52.346Z,45.00
2023-04-09T04:09:21.110Z,45.00
2023-04-09T04:11:50.809Z,46.00
2023-04-09T04:14:20.458Z,48.00
2023-04-09T04:16:48.353Z,48.00
2023-04-09T04:19:17.185Z,49.50
2023-04-09T04:21:46.759Z,58.00
2023-04-09T04:24:16.334Z,56.33
2023-04-09T04:26:45.172Z,53.00
2023-04-09T04:29:14.013Z,46.00
2023-04-09T04:31:43.827Z,48.00
2023-04-09T04:34:13.382Z,44.33
2023-04-09T04:36:42.127Z,44.00
2023-04-09T04:39:10.942Z,44.00
2023-04-09T04:41:39.713Z,42.00
2023-04-09T04:44:08.482Z,42.50
2023-04-09T04:46:37.291Z,43.50
2023-04-09T04:49:06.151Z,45.50
2023-04-09T04:51:34.913Z,44.50
2023-04-09T04:54:04.619Z,47.33
2023-04-09T04:56:34.263Z,47.00
2023-04-09T04:59:03.860Z,46.00
2023-04-09T05:01:33.634Z,59.00
2023-04-09T05:04:04.396Z,57.67
2023-04-09T05:06:34.101Z,49.33
2023-04-09T05:09:02.861Z,45.50
2023-04-09T05:11:32.406Z,51.67
2023-04-09T05:14:01.951Z,55.00
2023-04-09T05:16:32.812Z,51.33
2023-04-09T05:19:02.775Z,49.00
2023-04-09T05:21:32.370Z,47.50
2023-04-09T05:24:01.315Z,48.50
2023-04-09T05:26:30.911Z,51.33
2023-04-09T05:28:59.798Z,47.50
2023-04-09T05:31:29.484Z,74.67
2023-04-09T05:33:59.068Z,63.33
2023-04-09T05:36:28.801Z,73.67
2023-04-09T05:38:58.511Z,78.67
2023-04-09T05:41:28.182Z,84.33
2023-04-09T05:44:00.070Z,86.33
2023-04-09T05:46:30.512Z,73.00
2023-04-09T05:49:00.214Z,60.33
2023-04-09T05:51:29.972Z,55.67
2023-04-09T05:53:59.604Z,57.00
2023-04-09T05:56:29.213Z,56.33
2023-04-09T05:58:58.786Z,54.67
2023-04-09T06:01:27.849Z,51.00
2023-04-09T06:03:58.457Z,54.00
2023-04-09T06:06:28.492Z,53.33
2023-04-09T06:08:57.282Z,47.50
2023-04-09T06:11:27.332Z,42.00
2023-04-09T06:13:56.192Z,45.00
2023-04-09T06:16:24.172Z,42.50
2023-04-09T06:18:54.771Z,41.50
2023-04-09T06:21:23.816Z,43.00
2023-04-09T06:23:53.955Z,43.00
2023-04-09T06:26:23.001Z,46.00
2023-04-09T06:28:52.673Z,45.00
2023-04-09T06:31:23.035Z,44.00
2023-04-09T06:33:53.034Z,45.00
2023-04-09T06:36:21.542Z,45.00
2023-04-09T06:38:50.414Z,39.00
2023-04-09T06:41:26.668Z,42.00
2023-04-09T06:43:54.900Z,41.50
2023-04-09T06:46:22.807Z,42.00
2023-04-09T06:48:51.744Z,43.50
2023-04-09T06:51:20.751Z,32.33
2023-04-09T06:53:50.003Z,41.50
2023-04-09T06:56:18.960Z,38.00
2023-04-09T06:58:47.967Z,36.00
2023-04-09T07:01:17.633Z,32.00
2023-04-09T07:03:47.799Z,36.00
2023-04-09T07:06:16.533Z,35.67
2023-04-09T07:08:45.703Z,38.00
2023-04-09T07:11:17.337Z,33.00
2023-04-09T07:13:46.096Z,35.00
2023-04-09T07:16:14.956Z,35.00
2023-04-09T07:18:44.573Z,35.67
2023-04-09T07:21:14.221Z,34.33
2023-04-09T07:23:43.911Z,37.00
2023-04-09T07:26:12.730Z,41.50
2023-04-09T07:28:42.475Z,35.00
2023-04-09T07:31:13.217Z,35.00
2023-04-09T07:33:42.020Z,39.50
2023-04-09T07:36:11.747Z,51.67
2023-04-09T07:38:40.522Z,29.00
2023-04-09T07:41:12.324Z,34.67
2023-04-09T07:43:42.017Z,34.00
2023-04-09T07:46:11.600Z,38.00
2023-04-09T07:48:41.278Z,32.00
2023-04-09T07:51:09.991Z,34.00
2023-04-09T07:53:38.715Z,28.00
2023-04-09T07:56:08.725Z,34.33
2023-04-09T07:58:41.227Z,31.67
2023-04-09T08:01:10.029Z,47.00
2023-04-09T08:03:38.962Z,37.00
2023-04-09T08:06:08.766Z,29.00
2023-04-09T08:08:37.762Z,34.33
2023-04-09T08:11:07.430Z,46.67
2023-04-09T08:13:36.336Z,73.67
2023-04-09T08:16:05.314Z,26.00
2023-04-09T08:18:34.869Z,45.67
2023-04-09T08:21:06.523Z,38.00
2023-04-09T08:23:35.339Z,47.50
2023-04-09T08:26:05.170Z,66.75
2023-04-09T08:28:34.705Z,33.33
2023-04-09T08:31:03.502Z,45.00
2023-04-09T08:33:31.579Z,25.00
2023-04-09T08:36:03.077Z,25.00
2023-04-09T08:38:32.920Z,30.33
2023-04-09T08:41:01.613Z,31.00
2023-04-09T08:43:47.300Z,29.33
2023-04-09T08:46:24.619Z,28.00
2023-04-09T08:48:55.340Z,29.00
2023-04-09T08:51:25.891Z,25.00
2023-04-09T08:54:04.741Z,30.33
2023-04-09T08:56:33.981Z,26.00
2023-04-09T08:59:03.542Z,29.67
2023-04-09T09:01:33.554Z,23.00
2023-04-09T09:04:09.021Z,29.00
2023-04-09T09:06:41.320Z,26.33
2023-04-09T09:09:17.273Z,28.67
2023-04-09T09:11:50.520Z,30.00
2023-04-09T09:14:20.971Z,34.50
2023-04-09T09:16:58.857Z,35.33
2023-04-09T09:19:27.561Z,34.50
2023-04-09T09:22:06.816Z,34.33
2023-04-09T09:24:50.797Z,25.00
2023-04-09T09:27:39.804Z,27.00
2023-04-09T09:30:10.710Z,26.67
2023-04-09T09:32:40.260Z,39.00
2023-04-09T09:35:09.652Z,30.00
2023-04-09T09:37:39.246Z,31.67
2023-04-09T09:40:09.689Z,31.67
2023-04-09T09:42:54.733Z,29.67
2023-04-09T09:45:26.323Z,28.33
2023-04-09T09:47:55.118Z,30.00
2023-04-09T09:50:25.996Z,32.00
2023-04-09T09:53:07.296Z,31.50
2023-04-09T09:55:44.105Z,30.00
2023-04-09T09:58:28.732Z,35.67
2023-04-09T10:00:59.500Z,33.33
2023-04-09T10:03:33.237Z,34.33
2023-04-09T10:06:04.854Z,32.00
2023-04-09T10:08:36.239Z,32.00
2023-04-09T10:11:08.020Z,37.50
2023-04-09T10:13:47.085Z,28.33
2023-04-09T10:16:17.757Z,23.50
2023-04-09T10:18:47.428Z,34.00
2023-04-09T10:21:42.882Z,35.33
2023-04-09T10:24:12.772Z,39.00
2023-04-09T10:26:47.240Z,50.00
2023-04-09T10:29:18.727Z,29.00
2023-04-09T10:32:07.318Z,29.67
2023-04-09T10:34:42.972Z,31.33
2023-04-09T10:37:22.727Z,33.00
2023-04-09T10:39:53.033Z,34.00
2023-04-09T10:42:35.118Z,31.33
2023-04-09T10:45:11.906Z,36.67
2023-04-09T10:47:43.817Z,34.67
2023-04-09T10:50:28.165Z,32.00
2023-04-09T10:53:00.425Z,36.33
2023-04-09T10:55:42.666Z,34.00
2023-04-09T10:58:13.814Z,52.00
2023-04-09T11:00:46.856Z,33.33
2023-04-09T11:03:25.320Z,30.00
2023-04-09T11:06:11.897Z,31.33
2023-04-09T11:08:41.896Z,34.00
2023-04-09T11:11:11.748Z,30.00
2023-04-09T11:13:43.330Z,32.00
2023-04-09T11:16:12.983Z,36.00
2023-04-09T11:18:56.369Z,31.50
2023-04-09T11:21:29.354Z,31.33
2023-04-09T11:23:57.935Z,0.00
2023-04-09T11:26:37.515Z,35.00
2023-04-09T11:29:10.361Z,32.00
2023-04-09T11:31:39.952Z,35.33
2023-04-09T11:34:12.689Z,32.50
2023-04-09T11:36:42.231Z,34.33
2023-04-09T11:39:11.057Z,32.00
2023-04-09T11:41:40.946Z,36.00
2023-04-09T11:44:09.791Z,33.67
2023-04-09T11:46:40.356Z,35.00
2023-04-09T11:49:10.585Z,42.67
2023-04-09T11:51:40.459Z,43.00
2023-04-09T11:54:09.847Z,32.67
2023-04-09T11:56:38.568Z,30.00
2023-04-09T11:59:07.413Z,34.50
2023-04-09T12:01:36.408Z,38.00
2023-04-09T12:04:06.039Z,30.67
2023-04-09T12:06:42.856Z,32.67
2023-04-09T12:09:14.298Z,37.00
2023-04-09T12:11:46.595Z,36.33
2023-04-09T12:14:17.852Z,31.00
2023-04-09T12:16:52.957Z,31.00
2023-04-09T12:19:25.646Z,30.33
2023-04-09T12:21:58.430Z,28.33
2023-04-09T12:24:29.113Z,30.00
2023-04-09T12:26:58.152Z,31.33
2023-04-09T12:29:27.152Z,31.67
2023-04-09T12:31:56.290Z,29.67
2023-04-09T12:34:27.472Z,31.67
2023-04-09T12:36:56.340Z,32.00
2023-04-09T12:39:26.384Z,32.00
2023-04-09T12:41:55.085Z,32.00
2023-04-09T12:44:24.571Z,31.33
2023-04-09T12:46:53.348Z,31.67
2023-04-09T12:49:22.917Z,32.67
2023-04-09T12:51:51.986Z,31.33
2023-04-09T12:54:20.826Z,35.00
2023-04-09T12:56:50.596Z,33.33
2023-04-09T12:59:26.703Z,27.00
2023-04-09T13:01:56.495Z,32.00
2023-04-09T13:04:25.517Z,23.67
2023-04-09T13:06:55.328Z,33.00
2023-04-09T13:09:24.022Z,34.67
2023-04-09T13:11:52.835Z,36.50
2023-04-09T13:14:21.605Z,36.00
2023-04-09T13:16:52.978Z,48.00
2023-04-09T13:19:21.733Z,33.00
2023-04-09T13:21:50.452Z,32.67
2023-04-09T13:24:20.049Z,29.33
2023-04-09T13:26:48.892Z,31.67
2023-04-09T13:29:18.158Z,36.00
2023-04-09T13:31:47.704Z,33.33
2023-04-09T13:34:16.706Z,30.00
2023-04-09T13:36:45.499Z,31.67
2023-04-09T13:39:14.217Z,41.00
2023-04-09T13:41:44.457Z,33.00
2023-04-09T13:44:14.046Z,40.67
2023-04-09T13:46:42.797Z,34.50
2023-04-09T13:49:12.789Z,31.33
2023-04-09T13:51:41.738Z,31.33
2023-04-09T13:54:11.491Z,36.33
2023-04-09T13:56:41.571Z,34.00
2023-04-09T13:59:10.256Z,34.00
2023-04-09T14:01:39.024Z,31.33
2023-04-09T14:04:09.650Z,37.00
2023-04-09T14:06:38.422Z,34.33
2023-04-09T14:09:07.118Z,33.00
2023-04-09T14:11:36.839Z,34.00
2023-04-09T14:14:06.477Z,45.00
2023-04-09T14:16:35.203Z,34.33
2023-04-09T14:19:04.003Z,33.00
2023-04-09T14:21:32.775Z,36.67
2023-04-09T14:24:02.002Z,42.00
2023-04-09T14:26:31.726Z,33.67
2023-04-09T14:29:01.243Z,36.33
2023-04-09T14:31:30.146Z,39.00
2023-04-09T14:33:58.964Z,37.00
2023-04-09T14:36:27.998Z,34.33
2023-04-09T14:38:58.187Z,35.00
2023-04-09T14:41:27.375Z,34.67
2023-04-09T14:43:56.246Z,32.33
2023-04-09T14:46:24.989Z,40.00
2023-04-09T14:48:54.945Z,39.00
2023-04-09T14:51:24.615Z,40.00
2023-04-09T14:53:54.116Z,39.33
2023-04-09T14:56:22.890Z,37.00
2023-04-09T14:58:52.398Z,36.50
2023-04-09T15:01:21.575Z,38.50
2023-04-09T15:03:51.439Z,40.00
2023-04-09T15:06:20.576Z,37.00
2023-04-09T15:08:50.131Z,40.00
2023-04-09T15:11:23.057Z,50.00
2023-04-09T15:13:53.141Z,39.00
2023-04-09T15:16:28.415Z,33.67
2023-04-09T15:18:59.344Z,31.00
2023-04-09T15:21:29.008Z,49.33
2023-04-09T15:23:59.327Z,43.67
2023-04-09T15:26:28.232Z,39.50
2023-04-09T15:29:08.408Z,40.67
2023-04-09T15:31:38.493Z,39.33
2023-04-09T15:34:08.983Z,38.00
2023-04-09T15:36:38.414Z,39.00
2023-04-09T15:39:07.976Z,39.33
2023-04-09T15:41:37.540Z,42.33
2023-04-09T15:44:08.534Z,46.67
2023-04-09T15:46:41.441Z,36.33
2023-04-09T15:49:10.680Z,36.00
2023-04-09T15:51:40.241Z,46.33
2023-04-09T15:54:09.288Z,38.00
2023-04-09T15:56:40.465Z,35.00
2023-04-09T15:59:09.421Z,33.00
2023-04-09T16:01:39.190Z,47.33
2023-04-09T16:04:09.265Z,35.67
2023-04-09T16:06:39.654Z,40.50
2023-04-09T16:09:08.484Z,38.00
2023-04-09T16:11:37.770Z,37.50
2023-04-09T16:14:07.674Z,47.00
2023-04-09T16:16:40.204Z,45.33
2023-04-09T16:19:09.785Z,48.00
2023-04-09T16:21:43.958Z,45.67
2023-04-09T16:24:13.993Z,40.00
2023-04-09T16:26:46.019Z,41.67
2023-04-09T16:29:16.668Z,41.00
2023-04-09T16:31:45.466Z,42.50
2023-04-09T16:34:15.025Z,43.67
2023-04-09T16:36:44.870Z,51.00
2023-04-09T16:39:19.544Z,53.50
2023-04-09T16:41:50.919Z,47.33
2023-04-09T16:44:20.527Z,49.33
2023-04-09T16:46:50.190Z,47.67
2023-04-09T16:49:19.763Z,46.33
2023-04-09T16:51:52.019Z,50.33
2023-04-09T16:54:21.502Z,54.67
2023-04-09T16:56:51.158Z,53.00
2023-04-09T16:59:21.360Z,50.00
2023-04-09T17:01:51.999Z,51.67
2023-04-09T17:04:22.187Z,45.67
2023-04-09T17:06:51.804Z,49.33
2023-04-09T17:09:21.348Z,44.67
2023-04-09T17:11:53.166Z,47.67
2023-04-09T17:14:23.096Z,42.00
2023-04-09T17:16:54.087Z,44.00
2023-04-09T17:19:23.672Z,45.67
2023-04-09T17:21:53.437Z,42.33
2023-04-09T17:24:23.159Z,40.00
2023-04-09T17:26:52.069Z,39.00
2023-04-09T17:29:20.842Z,40.00
2023-04-09T17:31:53.437Z,41.67
2023-04-09T17:34:24.334Z,41.00
2023-04-09T17:36:57.580Z,46.67
2023-04-09T17:39:29.602Z,45.67
2023-04-09T17:42:00.825Z,52.00
2023-04-09T17:44:31.567Z,59.67
2023-04-09T17:47:05.323Z,70.00
2023-04-09T17:49:35.764Z,73.33
2023-04-09T17:52:05.394Z,54.33
2023-04-09T17:54:35.928Z,54.33
2023-04-09T17:57:04.911Z,53.33
2023-04-09T17:59:35.985Z,56.00
2023-04-09T18:02:06.101Z,79.67
2023-04-09T18:04:36.369Z,84.33
2023-04-09T18:07:07.154Z,72.00
2023-04-09T18:09:39.297Z,70.67
2023-04-09T18:12:09.268Z,63.50
2023-04-09T18:14:38.946Z,52.67
2023-04-09T18:17:08.562Z,54.33
2023-04-09T18:19:39.193Z,54.67
2023-04-09T18:22:09.039Z,54.67
2023-04-09T18:24:38.684Z,54.00
2023-04-09T18:27:08.485Z,54.33
2023-04-09T18:29:38.126Z,72.00
2023-04-09T18:32:06.645Z,52.00
2023-04-09T18:34:38.350Z,155.50
2023-04-09T18:37:06.397Z,135.50
2023-04-09T18:39:38.058Z,130.57
2023-04-09T18:42:08.175Z,127.67
2023-04-09T18:44:37.958Z,83.33
2023-04-09T18:47:11.690Z,101.50
2023-04-09T18:49:41.542Z,63.00
2023-04-09T18:52:11.282Z,58.33
2023-04-09T18:54:43.134Z,57.67
2023-04-09T18:57:12.770Z,56.00
2023-04-09T18:59:43.612Z,53.00
2023-04-09T19:02:13.368Z,53.33
2023-04-09T19:04:43.171Z,49.33
2023-04-09T19:07:12.808Z,46.67
2023-04-09T19:09:41.923Z,46.50
2023-04-09T19:12:11.602Z,50.00
2023-04-09T19:14:41.266Z,48.00
2023-04-09T19:17:11.973Z,45.33
2023-04-09T19:19:44.458Z,50.33
2023-04-09T19:22:14.112Z,45.50
2023-04-09T19:24:45.090Z,42.00
2023-04-09T19:27:14.364Z,44.00
2023-04-09T19:29:46.408Z,35.00
2023-04-09T19:32:15.206Z,43.00
2023-04-09T19:34:53.962Z,41.67
2023-04-09T19:37:27.449Z,43.50
2023-04-09T19:40:04.704Z,43.50
2023-04-09T19:42:33.596Z,46.00
2023-04-09T19:45:02.516Z,45.00
2023-04-09T19:47:32.490Z,43.33
2023-04-09T19:50:01.672Z,46.50
2023-04-09T19:52:31.211Z,44.00
2023-04-09T19:55:04.583Z,72.00
2023-04-09T19:57:35.177Z,70.67
2023-04-09T20:00:05.856Z,70.33
2023-04-09T20:03:07.245Z,62.33
2023-04-09T20:05:37.118Z,72.00
2023-04-09T20:08:05.406Z,60.50
2023-04-09T20:10:43.005Z,73.67
2023-04-09T20:13:12.585Z,60.33
2023-04-09T20:15:42.256Z,68.00
2023-04-09T20:18:11.659Z,59.00
2023-04-09T20:20:41.366Z,58.67
2023-04-09T20:23:11.042Z,59.00
2023-04-09T20:25:40.552Z,59.00
2023-04-09T20:28:10.251Z,62.33
2023-04-09T20:30:40.074Z,65.00
2023-04-09T20:33:09.860Z,73.00
2023-04-09T20:35:39.609Z,66.67
2023-04-09T20:38:09.270Z,67.67
2023-04-09T20:40:38.976Z,86.00
2023-04-09T20:43:09.598Z,134.75
2023-04-09T20:45:37.651Z,172.50
2023-04-09T20:48:08.537Z,132.25
2023-04-09T20:50:39.160Z,126.00
2023-04-09T20:53:09.114Z,124.67
2023-04-09T20:55:38.990Z,96.33
2023-04-09T20:58:08.720Z,87.33
2023-04-09T21:00:38.427Z,76.67
2023-04-09T21:03:08.639Z,71.33
2023-04-09T21:05:38.447Z,71.67
2023-04-09T21:08:08.164Z,68.67
2023-04-09T21:10:38.707Z,95.25
2023-04-09T21:13:06.601Z,117.50
2023-04-09T21:15:34.548Z,111.50
2023-04-09T21:18:04.364Z,90.67
2023-04-09T21:20:34.042Z,83.33
2023-04-09T21:23:03.708Z,71.67
2023-04-09T21:25:33.404Z,66.67
2023-04-09T21:28:02.993Z,59.67
2023-04-09T21:30:37.720Z,61.00
2023-04-09T21:33:09.409Z,80.00
2023-04-09T21:35:39.298Z,70.33
2023-04-09T21:38:09.208Z,62.00
2023-04-09T21:40:38.836Z,61.00
2023-04-09T21:43:09.066Z,61.67
2023-04-09T21:45:38.724Z,54.67
2023-04-09T21:48:09.443Z,52.67
2023-04-09T21:50:39.032Z,53.00
2023-04-09T21:53:08.675Z,55.00
2023-04-09T21:55:39.134Z,57.00
2023-04-09T21:58:09.512Z,57.00
2023-04-09T22:00:38.873Z,52.00
2023-04-09T22:03:08.805Z,51.00
2023-04-09T22:05:38.698Z,53.67
2023-04-09T22:08:08.336Z,52.00
2023-04-09T22:10:37.147Z,53.50
2023-04-09T22:13:07.413Z,52.67
2023-04-09T22:15:36.991Z,50.67
2023-04-09T22:18:06.593Z,52.33
2023-04-09T22:20:37.094Z,53.33
2023-04-09T22:23:07.321Z,53.67
2023-04-09T22:25:37.107Z,53.00
2023-04-09T22:28:06.780Z,52.33
2023-04-09T22:30:36.649Z,56.33
2023-04-09T22:33:06.320Z,56.00
2023-04-09T22:35:36.620Z,51.33
2023-04-09T22:38:07.320Z,51.33
2023-04-09T22:40:37.074Z,50.33
2023-04-09T22:43:06.638Z,54.00
2023-04-09T22:45:36.978Z,53.67
2023-04-09T22:48:07.860Z,53.00
2023-04-09T22:50:37.751Z,53.00
2023-04-09T22:53:07.371Z,53.33
2023-04-09T22:55:38.446Z,52.67
2023-04-09T22:58:08.070Z,53.00
2023-04-09T23:00:37.682Z,53.33
2023-04-09T23:03:07.369Z,56.00
2023-04-09T23:05:37.836Z,52.67
2023-04-09T23:08:07.494Z,50.00
2023-04-09T23:10:37.268Z,55.00
2023-04-09T23:13:07.056Z,51.67
2023-04-09T23:15:38.318Z,53.00
2023-04-09T23:18:07.925Z,53.00
2023-04-09T23:20:37.722Z,53.67
2023-04-09T23:23:06.471Z,54.00
2023-04-09T23:25:36.064Z,60.33
2023-04-09T23:28:05.795Z,59.33
2023-04-09T23:30:35.432Z,62.33
2023-04-09T23:33:05.160Z,62.67
2023-04-09T23:35:34.891Z,60.67
2023-04-09T23:38:04.517Z,60.00
2023-04-09T23:40:34.160Z,55.33
2023-04-09T23:43:03.836Z,56.33
2023-04-09T23:45:33.485Z,55.00
2023-04-09T23:48:06.407Z,60.00
2023-04-09T23:50:40.759Z,58.67
2023-04-09T23:53:11.185Z,61.00
2023-04-09T23:55:41.926Z,60.00
2023-04-09T23:58:11.917Z,55.33
